Time;durP1;ratioP1;P1;durP2;ratioP2;P2;SDS_P1;SDS_P2;PMS_P1;PMS_P2;Temp;Humidity;BMP_temperature;BMP_pressure;BME280_temperature;BME280_humidity;BME280_pressure;Samples;Min_cycle;Max_cycle;Signal;HPM_P1;HPM_P2
2021/09/11 00:00:16;;;;;;;17.75;8.55;;;;;;;19.52;50.24;100784.94;4906939;29;20067;-71
2021/09/11 00:02:46;;;;;;;14.55;7.70;;;;;;;19.65;50.31;100789.91;4906299;29;20047;-72
2021/09/11 00:05:12;;;;;;;15.98;7.43;;;;;;;19.61;49.95;100784.66;4903883;29;20087;-70
2021/09/11 00:07:38;;;;;;;10.18;5.75;;;;;;;19.54;49.68;100788.44;4908401;29;20536;-72
2021/09/11 00:10:06;;;;;;;17.95;8.25;;;;;;;19.04;50.21;100697.75;4908761;29;20050;-70
2021/09/11 00:12:31;;;;;;;13.25;7.70;;;;;;;19.50;49.78;100781.50;4903169;29;20044;-70
2021/09/11 00:14:57;;;;;;;9.63;7.03;;;;;;;19.45;50.96;100782.53;4902275;29;20042;-70
2021/09/11 00:17:23;;;;;;;13.10;7.55;;;;;;;19.32;51.14;100756.31;4906797;29;20508;-69
2021/09/11 00:19:48;;;;;;;13.27;7.55;;;;;;;19.21;50.67;100746.91;4908211;29;20044;-71
2021/09/11 00:22:13;;;;;;;12.02;7.47;;;;;;;18.84;51.27;100769.25;4913024;29;20047;-70
2021/09/11 00:24:39;;;;;;;13.13;7.85;;;;;;;18.38;52.53;100768.72;4904649;29;20482;-70
2021/09/11 00:27:04;;;;;;;12.75;7.53;;;;;;;18.48;51.69;100748.09;4911082;29;20036;-70
2021/09/11 00:29:30;;;;;;;22.95;6.72;;;;;;;18.87;51.44;100775.38;4907084;29;20117;-70
2021/09/11 00:31:55;;;;;;;17.55;7.18;;;;;;;19.03;50.39;100749.19;4909818;29;20032;-71
2021/09/11 00:34:21;;;;;;;11.30;7.47;;;;;;;19.28;50.31;100764.44;4906936;29;20065;-69
2021/09/11 00:36:48;;;;;;;14.32;8.10;;;;;;;19.05;52.03;100736.72;4911146;29;20040;-68
2021/09/11 00:39:14;;;;;;;9.82;6.72;;;;;;;19.04;52.44;100747.44;4903476;29;20055;-69
2021/09/11 00:41:39;;;;;;;13.45;7.80;;;;;;;19.16;52.26;100758.56;4904879;29;20074;-69
2021/09/11 00:44:05;;;;;;;11.73;7.00;;;;;;;18.81;53.33;100770.22;4905907;29;20076;-71
2021/09/11 00:46:30;;;;;;;16.25;6.70;;;;;;;18.92;53.18;100773.47;4903712;29;20028;-70
2021/09/11 00:48:56;;;;;;;15.10;6.93;;;;;;;18.98;51.14;100765.28;4911096;29;20055;-71
2021/09/11 00:51:21;;;;;;;9.77;7.32;;;;;;;19.18;50.30;100770.03;4912049;29;20401;-71
2021/09/11 00:53:47;;;;;;;11.65;7.80;;;;;;;19.18;49.31;100751.41;4908204;29;20032;-70
2021/09/11 00:56:13;;;;;;;19.52;9.15;;;;;;;19.24;49.31;100768.09;4906208;29;20493;-71
2021/09/11 00:58:39;;;;;;;13.00;8.25;;;;;;;19.27;51.01;100770.66;4909572;29;20066;-70
2021/09/11 01:01:06;;;;;;;14.60;8.35;;;;;;;18.97;50.43;100741.41;4908014;29;20028;-69
2021/09/11 01:03:32;;;;;;;13.70;7.82;;;;;;;18.85;51.16;100737.31;4925951;29;20078;-70
2021/09/11 01:05:58;;;;;;;13.18;8.45;;;;;;;18.79;52.61;100742.81;4907240;29;20405;-70
2021/09/11 01:08:26;;;;;;;12.60;7.63;;;;;;;18.79;52.85;100747.25;4904085;29;20114;-71
2021/09/11 01:10:52;;;;;;;17.17;7.95;;;;;;;18.77;52.95;100739.31;4921682;29;20051;-70
2021/09/11 01:13:18;;;;;;;11.38;7.63;;;;;;;18.77;53.42;100766.75;4903560;29;20032;-70
2021/09/11 01:15:44;;;;;;;15.77;6.90;;;;;;;18.72;53.18;100766.00;4909872;29;20492;-70
2021/09/11 01:18:10;;;;;;;18.20;7.85;;;;;;;18.83;52.90;100762.22;4909606;29;21365;-68
2021/09/11 01:20:38;;;;;;;11.23;7.85;;;;;;;18.66;53.11;100742.25;4906564;29;20035;-70
2021/09/11 01:23:05;;;;;;;25.30;8.25;;;;;;;18.90;52.34;100754.00;4907557;29;20115;-69
2021/09/11 01:25:30;;;;;;;16.48;9.00;;;;;;;18.79;51.94;100728.66;4906387;29;20040;-68
2021/09/11 01:27:56;;;;;;;11.75;7.70;;;;;;;18.71;51.06;100731.50;4940941;28;20056;-70
2021/09/11 01:30:22;;;;;;;15.60;7.40;;;;;;;18.80;50.40;100739.25;4910852;29;20409;-73
2021/09/11 01:32:49;;;;;;;14.40;7.32;;;;;;;19.00;50.21;100759.06;4900296;29;20043;-68
2021/09/11 01:35:16;;;;;;;12.13;7.28;;;;;;;18.75;50.47;100726.06;4908587;29;20087;-71
2021/09/11 01:37:41;;;;;;;17.55;7.35;;;;;;;18.86;50.14;100733.72;4910154;29;20568;-69
2021/09/11 01:40:08;;;;;;;14.00;7.55;;;;;;;18.87;50.18;100754.09;4908957;29;20117;-69
2021/09/11 01:42:34;;;;;;;20.15;8.10;;;;;;;18.87;50.41;100755.88;4910362;29;20075;-73
2021/09/11 01:45:06;;;;;;;13.60;7.18;;;;;;;18.72;51.08;100760.69;4909776;29;20143;-70
2021/09/11 01:47:32;;;;;;;13.85;7.93;;;;;;;18.84;51.67;100764.81;4907313;29;20052;-70
2021/09/11 01:49:57;;;;;;;10.02;7.15;;;;;;;18.63;52.69;100730.84;4900447;29;20417;-70
2021/09/11 01:52:23;;;;;;;11.30;6.82;;;;;;;18.65;52.75;100734.31;4905666;29;20044;-70
2021/09/11 01:54:49;;;;;;;17.42;8.30;;;;;;;18.67;52.65;100767.91;4906488;29;20061;-71
2021/09/11 01:57:15;;;;;;;11.07;7.47;;;;;;;18.37;53.40;100735.06;4908578;29;20047;-70
2021/09/11 01:59:41;;;;;;;15.45;8.00;;;;;;;18.63;52.35;100750.31;4903305;29;20032;-71
2021/09/11 02:02:08;;;;;;;12.48;7.47;;;;;;;18.72;52.95;100760.69;4908300;29;20675;-70
2021/09/11 02:04:35;;;;;;;15.68;6.95;;;;;;;18.55;53.46;100760.28;4931547;28;20578;-71
2021/09/11 02:07:02;;;;;;;10.80;6.95;;;;;;;18.68;52.56;100750.19;4907435;29;20513;-70
2021/09/11 02:09:28;;;;;;;16.50;7.93;;;;;;;18.68;52.00;100751.06;4908488;29;20034;-69
2021/09/11 02:11:53;;;;;;;12.68;6.75;;;;;;;18.64;50.95;100729.94;4896317;29;20405;-70
2021/09/11 02:14:19;;;;;;;14.73;7.88;;;;;;;18.79;50.84;100748.13;4905788;29;20051;-69
2021/09/11 02:16:44;;;;;;;13.02;6.20;;;;;;;18.87;50.29;100756.78;4917225;29;20045;-69
2021/09/11 02:19:10;;;;;;;11.77;6.15;;;;;;;18.84;50.82;100753.31;4908541;29;20037;-69
2021/09/11 02:21:35;;;;;;;11.70;6.95;;;;;;;18.74;50.18;100728.75;4897812;29;20081;-70
2021/09/11 02:24:01;;;;;;;10.05;5.78;;;;;;;18.87;49.79;100730.19;4907760;29;20045;-70
2021/09/11 02:26:26;;;;;;;7.63;5.18;;;;;;;18.51;50.29;100724.94;4908497;29;20036;-70
2021/09/11 02:28:52;;;;;;;10.50;6.22;;;;;;;18.79;50.74;100756.09;4905312;29;20044;-71
2021/09/11 02:31:18;;;;;;;9.98;6.40;;;;;;;18.63;50.43;100723.72;4907355;29;20044;-69
2021/09/11 02:33:44;;;;;;;9.65;6.43;;;;;;;18.64;50.45;100725.47;4902093;29;20481;-69
2021/09/11 02:36:10;;;;;;;8.18;5.07;;;;;;;18.74;51.61;100756.19;4911055;29;20132;-69
2021/09/11 02:38:36;;;;;;;13.32;5.80;;;;;;;18.85;50.64;100752.41;4901890;29;20076;-70
2021/09/11 02:41:02;;;;;;;11.82;6.20;;;;;;;18.77;50.13;100755.28;4897305;29;20048;-71
2021/09/11 02:43:27;;;;;;;12.60;7.03;;;;;;;18.57;50.90;100734.53;4903026;29;20652;-70
2021/09/11 02:45:53;;;;;;;17.30;6.38;;;;;;;18.65;50.50;100753.78;4935905;28;20513;-72
2021/09/11 02:48:18;;;;;;;11.18;5.63;;;;;;;18.77;50.99;100756.13;4903841;29;20059;-71
2021/09/11 02:50:44;;;;;;;10.98;6.22;;;;;;;18.65;50.84;100732.53;4909819;29;20046;-71
2021/09/11 02:53:09;;;;;;;15.93;6.78;;;;;;;18.66;50.28;100733.41;4905516;29;20066;-70
2021/09/11 02:55:35;;;;;;;10.05;5.93;;;;;;;18.81;50.31;100762.25;4903155;29;20409;-71
2021/09/11 02:58:00;;;;;;;13.25;7.05;;;;;;;18.58;50.30;100746.03;4907808;29;20043;-70
2021/09/11 03:00:26;;;;;;;10.57;5.85;;;;;;;18.45;50.83;100745.50;4898702;29;20426;-70
2021/09/11 03:02:51;;;;;;;9.15;7.15;;;;;;;18.44;50.14;100770.34;4905621;29;20039;-73
2021/09/11 03:05:17;;;;;;;18.67;6.13;;;;;;;18.47;50.60;100776.44;4908311;29;20096;-71
2021/09/11 03:07:42;;;;;;;10.18;5.78;;;;;;;18.07;50.64;100678.34;4902088;29;20028;-71
2021/09/11 03:10:08;;;;;;;10.00;5.28;;;;;;;18.70;50.27;100766.97;4907359;29;20475;-72
2021/09/11 03:12:34;;;;;;;10.88;6.40;;;;;;;18.90;49.67;100772.63;4906594;29;20048;-70
2021/09/11 03:14:59;;;;;;;10.68;7.03;;;;;;;18.79;50.01;100750.78;4919197;29;20024;-70
2021/09/11 03:17:25;;;;;;;8.73;5.07;;;;;;;18.62;50.13;100761.88;4910486;29;20040;-73
2021/09/11 03:19:50;;;;;;;10.95;5.93;;;;;;;18.31;50.99;100745.88;4901548;29;20052;-70
2021/09/11 03:22:16;;;;;;;8.23;5.20;;;;;;;18.63;50.80;100771.56;4907239;29;20091;-71
2021/09/11 03:24:41;;;;;;;10.95;5.38;;;;;;;18.68;50.84;100777.66;4939404;28;20613;-70
2021/09/11 03:27:07;;;;;;;10.45;6.18;;;;;;;18.80;50.30;100780.91;4907259;29;20048;-69
2021/09/11 03:29:33;;;;;;;13.32;6.32;;;;;;;18.80;49.95;100772.91;4909310;29;20039;-69
2021/09/11 03:31:58;;;;;;;7.40;4.78;;;;;;;18.82;50.00;100776.41;4908369;29;20051;-70
2021/09/11 03:34:24;;;;;;;8.90;4.65;;;;;;;18.65;49.53;100777.72;4901314;29;20589;-71
2021/09/11 03:36:49;;;;;;;8.15;5.03;;;;;;;18.66;49.44;100776.81;4906513;29;20048;-70
2021/09/11 03:39:14;;;;;;;9.77;5.90;;;;;;;18.94;49.10;100782.25;4907834;29;20031;-70
2021/09/11 03:41:40;;;;;;;7.80;4.85;;;;;;;19.04;48.61;100787.31;4908109;29;20032;-70
2021/09/11 03:44:06;;;;;;;10.18;5.00;;;;;;;19.01;48.35;100752.81;4895052;29;20067;-72
2021/09/11 03:46:32;;;;;;;25.83;6.25;;;;;;;18.74;48.95;100758.00;4906836;29;20123;-71
2021/09/11 03:48:58;;;;;;;9.20;5.22;;;;;;;18.94;48.95;100776.06;4904426;29;20060;-72
2021/09/11 03:51:24;;;;;;;9.80;5.63;;;;;;;18.94;48.66;100768.97;4902684;29;20048;-70
2021/09/11 03:53:49;;;;;;;6.65;4.30;;;;;;;18.63;49.42;100771.56;4906929;29;20070;-71
2021/09/11 03:56:15;;;;;;;7.78;4.80;;;;;;;18.89;48.63;100768.19;4912847;29;20047;-70
2021/09/11 03:58:40;;;;;;;8.75;5.03;;;;;;;18.89;48.33;100743.41;4903348;29;20100;-70
2021/09/11 04:01:06;;;;;;;9.43;6.05;;;;;;;18.94;48.98;100776.06;4906185;29;20095;-69
2021/09/11 04:03:32;;;;;;;9.88;5.43;;;;;;;18.88;49.01;100771.78;4901782;29;20032;-70
2021/09/11 04:05:58;;;;;;;12.32;7.90;;;;;;;18.75;48.84;100746.44;4910724;29;20036;-70
2021/09/11 04:08:24;;;;;;;6.93;4.97;;;;;;;18.96;48.33;100759.16;4911194;29;20044;-71
2021/09/11 04:10:51;;;;;;;7.43;5.53;;;;;;;18.99;48.41;100776.81;4905243;29;20036;-75
2021/09/11 04:13:16;;;;;;;22.48;6.15;;;;;;;19.03;48.45;100761.63;4907358;29;20036;-70
2021/09/11 04:15:42;;;;;;;15.20;6.88;;;;;;;18.79;48.66;100750.78;4909927;29;20032;-71
2021/09/11 04:18:07;;;;;;;15.45;9.32;;;;;;;19.10;48.07;100769.38;4907491;29;20045;-74
2021/09/11 04:20:33;;;;;;;17.13;8.43;;;;;;;19.04;48.38;100774.03;4909228;29;20048;-70
2021/09/11 04:22:58;;;;;;;7.78;5.30;;;;;;;19.01;48.78;100751.06;4913658;29;20040;-70
2021/09/11 04:25:24;;;;;;;10.95;6.07;;;;;;;19.14;48.53;100779.00;4934927;29;20051;-70
2021/09/11 04:27:49;;;;;;;8.88;5.47;;;;;;;18.64;49.18;100748.53;4906823;29;20506;-71
2021/09/11 04:30:15;;;;;;;6.03;4.60;;;;;;;18.70;49.04;100765.16;4901052;29;20135;-70
2021/09/11 04:32:40;;;;;;;8.40;5.32;;;;;;;18.84;48.96;100774.59;4909375;29;20040;-70
2021/09/11 04:35:06;;;;;;;9.60;5.43;;;;;;;18.93;49.05;100777.84;4906795;29;20040;-70
2021/09/11 04:37:32;;;;;;;14.68;5.30;;;;;;;18.97;48.94;100768.00;4907756;29;20123;-70
2021/09/11 04:39:58;;;;;;;8.07;4.32;;;;;;;18.95;48.85;100752.09;4902515;29;20626;-70
2021/09/11 04:42:24;;;;;;;7.10;4.78;;;;;;;19.03;49.12;100764.28;4909717;29;20047;-71
2021/09/11 04:44:49;;;;;;;9.15;5.20;;;;;;;19.15;49.04;100779.88;4907339;29;20525;-70
2021/09/11 04:47:15;;;;;;;10.88;5.05;;;;;;;19.17;48.77;100772.72;4908853;29;20058;-70
2021/09/11 04:49:40;;;;;;;6.93;4.85;;;;;;;19.22;47.86;100757.47;4912521;29;20044;-69
2021/09/11 04:52:06;;;;;;;17.13;4.78;;;;;;;19.29;48.03;100760.84;4903015;29;20509;-70
2021/09/11 04:54:32;;;;;;;7.32;5.45;;;;;;;19.52;47.33;100776.09;4900905;29;20410;-70
2021/09/11 04:56:57;;;;;;;10.32;4.78;;;;;;;19.36;47.69;100755.31;4906484;29;20070;-69
2021/09/11 04:59:23;;;;;;;12.63;5.30;;;;;;;19.52;47.39;100760.13;4900957;29;20036;-70
2021/09/11 05:01:49;;;;;;;8.35;4.35;;;;;;;19.41;47.17;100752.50;4908715;29;20032;-70
2021/09/11 05:04:14;;;;;;;20.02;5.38;;;;;;;19.74;47.69;100777.22;4908459;29;20032;-72
2021/09/11 05:06:40;;;;;;;9.70;5.50;;;;;;;19.80;46.74;100769.00;4906589;29;20037;-70
2021/09/11 05:09:05;;;;;;;6.95;4.20;;;;;;;19.83;46.53;100768.06;4908380;29;20091;-69
2021/09/11 05:11:31;;;;;;;9.07;6.50;;;;;;;19.77;47.19;100768.25;4906219;29;20047;-69
2021/09/11 05:13:56;;;;;;;9.43;5.28;;;;;;;20.03;46.69;100772.72;4903107;29;20032;-70
2021/09/11 05:16:22;;;;;;;15.15;5.20;;;;;;;20.16;46.43;100771.38;4901798;29;20024;-68
2021/09/11 05:18:47;;;;;;;10.23;5.13;;;;;;;19.88;46.68;100775.88;4907035;29;20036;-70
2021/09/11 05:21:13;;;;;;;7.65;5.03;;;;;;;19.84;46.64;100750.28;4907958;29;20036;-72
2021/09/11 05:23:39;;;;;;;11.85;5.30;;;;;;;19.88;46.44;100749.25;4906602;29;20587;-70
2021/09/11 05:26:05;;;;;;;7.43;5.47;;;;;;;19.97;47.08;100749.81;4909822;29;20524;-69
2021/09/11 05:28:31;;;;;;;21.83;6.55;;;;;;;20.07;45.75;100771.69;4903938;29;20028;-69
2021/09/11 05:30:56;;;;;;;12.05;5.85;;;;;;;20.60;44.90;100776.09;4906175;29;20044;-70
2021/09/11 05:33:22;;;;;;;8.65;5.45;;;;;;;20.87;44.37;100780.44;4901766;29;20036;-69
2021/09/11 05:35:48;;;;;;;9.23;5.43;;;;;;;20.48;44.89;100777.38;4899157;29;20383;-70
2021/09/11 05:38:13;;;;;;;13.75;5.00;;;;;;;20.14;46.31;100770.56;4909274;29;20024;-71
2021/09/11 05:40:39;;;;;;;10.75;5.05;;;;;;;19.96;46.41;100747.22;4912015;29;20056;-70
2021/09/11 05:43:04;;;;;;;8.68;4.53;;;;;;;20.27;47.00;100770.13;4900225;29;20075;-80
2021/09/11 05:45:30;;;;;;;9.40;5.22;;;;;;;20.38;45.41;100763.50;4899000;29;20040;-79
2021/09/11 05:47:55;;;;;;;17.08;5.35;;;;;;;20.44;46.38;100771.31;4931219;28;20072;-79
2021/09/11 05:50:21;;;;;;;9.15;4.45;;;;;;;20.51;46.15;100782.63;4901946;29;20503;-78
2021/09/11 05:52:46;;;;;;;10.40;5.53;;;;;;;20.61;46.51;100775.19;4907262;29;20071;-79
2021/09/11 05:55:11;;;;;;;7.78;4.05;;;;;;;20.64;46.40;100759.09;4895614;29;20032;-82
2021/09/11 05:57:37;;;;;;;14.35;5.72;;;;;;;21.24;45.32;100784.41;4898532;29;20382;-79
2021/09/11 06:00:04;;;;;;;9.93;5.40;;;;;;;21.31;44.10;100757.50;4906113;29;20119;-83
2021/09/11 06:02:29;;;;;;;13.10;5.70;;;;;;;21.70;43.62;100785.31;4903537;29;20025;-83
2021/09/11 06:04:55;;;;;;;13.88;4.88;;;;;;;21.84;43.13;100778.53;4906142;29;20176;-80
2021/09/11 06:07:20;;;;;;;8.60;5.47;;;;;;;21.99;43.57;100782.38;4907973;29;20040;-81
2021/09/11 06:09:46;;;;;;;8.00;5.53;;;;;;;21.94;42.75;100755.84;4907363;29;20436;-80
2021/09/11 06:12:11;;;;;;;7.47;5.15;;;;;;;21.85;43.00;100778.47;4933854;28;20051;-82
2021/09/11 06:14:38;;;;;;;15.55;7.22;;;;;;;21.97;43.62;100752.19;4928841;28;20044;-80
2021/09/11 06:17:06;;;;;;;10.43;5.40;;;;;;;22.25;44.77;100766.13;4895133;29;20032;-76
2021/09/11 06:19:33;;;;;;;11.88;5.68;;;;;;;22.30;45.55;100747.22;4903989;29;20040;-77
2021/09/11 06:21:59;;;;;;;8.80;4.68;;;;;;;22.60;44.18;100755.72;4901337;29;20172;-70
2021/09/11 06:24:24;;;;;;;7.97;4.78;;;;;;;22.76;42.94;100770.13;4902969;29;20122;-68
2021/09/11 06:26:50;;;;;;;10.90;4.28;;;;;;;22.96;42.52;100771.03;4903824;29;20053;-68
2021/09/11 06:29:15;;;;;;;10.13;5.70;;;;;;;22.97;43.11;100786.16;4903048;29;20032;-68
2021/09/11 06:31:41;;;;;;;10.38;5.95;;;;;;;22.93;42.70;100779.22;4931704;28;20513;-69
2021/09/11 06:34:06;;;;;;;16.23;6.55;;;;;;;23.16;42.63;100792.44;4899556;29;20690;-68
2021/09/11 06:36:32;;;;;;;7.88;5.30;;;;;;;23.04;42.88;100794.78;4901240;29;20095;-68
2021/09/11 06:38:57;;;;;;;15.43;6.55;;;;;;;23.39;41.17;100794.03;4908020;29;20574;-68
2021/09/11 06:41:23;;;;;;;14.93;5.00;;;;;;;23.50;42.42;100798.00;4898327;29;20036;-68
2021/09/11 06:43:48;;;;;;;9.20;5.47;;;;;;;23.64;41.98;100792.84;4902255;29;20025;-68
2021/09/11 06:46:14;;;;;;;9.30;5.22;;;;;;;23.88;41.10;100792.63;4902912;29;20032;-68
2021/09/11 06:48:39;;;;;;;11.98;5.15;;;;;;;23.78;41.21;100790.41;4906604;29;20560;-67
2021/09/11 06:51:04;;;;;;;16.35;5.15;;;;;;;23.94;40.41;100779.78;4901316;29;20049;-68
2021/09/11 06:53:30;;;;;;;10.55;4.90;;;;;;;23.68;40.37;100772.16;4904470;29;20500;-68
2021/09/11 06:55:56;;;;;;;9.55;6.30;;;;;;;23.83;40.86;100789.31;4891643;29;20044;-68
2021/09/11 06:58:21;;;;;;;10.15;6.00;;;;;;;23.86;40.41;100748.94;4906533;29;20473;-67
2021/09/11 07:00:47;;;;;;;10.43;4.70;;;;;;;24.22;40.68;100767.69;4902174;29;20043;-67
2021/09/11 07:03:12;;;;;;;13.07;4.95;;;;;;;24.38;40.84;100786.53;4905251;29;20557;-68
2021/09/11 07:05:38;;;;;;;14.40;4.60;;;;;;;24.57;40.70;100792.72;4907931;29;20036;-67
2021/09/11 07:08:04;;;;;;;9.65;5.18;;;;;;;24.74;39.94;100799.00;4936845;28;20048;-67
2021/09/11 07:10:29;;;;;;;11.77;6.35;;;;;;;24.74;39.93;100774.84;4907504;29;20081;-68
2021/09/11 07:12:55;;;;;;;16.63;6.03;;;;;;;24.90;39.81;100799.06;4900255;29;20390;-67
2021/09/11 07:15:20;;;;;;;10.40;6.38;;;;;;;24.96;39.94;100804.09;4908810;29;20058;-67
2021/09/11 07:17:46;;;;;;;13.80;6.60;;;;;;;25.08;39.67;100799.91;4903509;29;20033;-68
2021/09/11 07:20:12;;;;;;;14.60;6.18;;;;;;;25.13;38.41;100800.50;4937803;28;20391;-68
2021/09/11 07:22:37;;;;;;;14.75;7.95;;;;;;;25.05;38.24;100783.00;4905711;29;20067;-68
2021/09/11 07:25:03;;;;;;;21.27;6.07;;;;;;;25.15;38.30;100778.00;4899527;29;20036;-67
2021/09/11 07:27:29;;;;;;;13.70;5.65;;;;;;;25.29;38.45;100790.69;4908505;29;20040;-68
2021/09/11 07:29:56;;;;;;;11.90;6.75;;;;;;;25.34;37.82;100794.00;4909720;29;20065;-67
2021/09/11 07:32:22;;;;;;;10.52;5.45;;;;;;;25.47;37.61;100792.34;4911107;29;20040;-68
2021/09/11 07:34:48;;;;;;;13.43;7.10;;;;;;;25.52;37.52;100799.28;4910007;29;20039;-68
2021/09/11 07:37:14;;;;;;;11.05;5.95;;;;;;;25.73;37.72;100787.31;4909999;29;20044;-69
2021/09/11 07:39:40;;;;;;;13.05;6.40;;;;;;;25.83;36.15;100807.34;4910870;29;20032;-68
2021/09/11 07:42:06;;;;;;;16.05;6.35;;;;;;;25.27;38.06;100787.22;4907932;29;20513;-68
2021/09/11 07:44:31;;;;;;;9.10;5.78;;;;;;;25.75;35.40;100787.22;4908953;29;20525;-68
2021/09/11 07:46:57;;;;;;;9.02;5.47;;;;;;;25.35;35.35;100786.78;4910356;29;20119;-68
2021/09/11 07:49:23;;;;;;;7.93;4.25;;;;;;;25.59;33.36;100803.34;4909032;29;20056;-68
2021/09/11 07:51:49;;;;;;;13.52;6.53;;;;;;;25.24;34.58;100806.19;4910333;29;20044;-67
2021/09/11 07:54:14;;;;;;;17.95;6.82;;;;;;;25.71;35.20;100799.97;4910340;29;20410;-68
2021/09/11 07:56:40;;;;;;;10.25;5.07;;;;;;;25.20;34.37;100802.81;4903212;29;20064;-68
2021/09/11 07:59:05;;;;;;;9.23;4.55;;;;;;;25.48;34.47;100804.81;4921402;29;20025;-68
2021/09/11 08:01:31;;;;;;;10.80;6.35;;;;;;;25.34;34.96;100796.66;4909685;29;20028;-68
2021/09/11 08:03:56;;;;;;;9.05;4.88;;;;;;;25.28;34.26;100772.81;4907389;29;20072;-68
2021/09/11 08:06:22;;;;;;;7.43;4.75;;;;;;;25.65;34.06;100760.84;4911073;29;20674;-67
2021/09/11 08:08:47;;;;;;;18.08;5.35;;;;;;;25.45;35.16;100782.63;4912495;29;20063;-67
2021/09/11 08:11:15;;;;;;;11.50;4.75;;;;;;;25.46;34.68;100776.31;4906301;29;20069;-67
2021/09/11 08:13:41;;;;;;;20.85;5.32;;;;;;;24.85;36.05;100759.91;4906944;29;20401;-67
2021/09/11 08:16:06;;;;;;;9.50;5.75;;;;;;;25.05;37.04;100776.75;4908501;29;20040;-67
2021/09/11 08:18:32;;;;;;;10.73;5.03;;;;;;;25.67;34.26;100774.22;4933571;28;20056;-67
2021/09/11 08:20:57;;;;;;;10.32;4.47;;;;;;;25.75;33.75;100750.44;4909953;29;20032;-67
2021/09/11 08:23:23;;;;;;;18.70;6.13;;;;;;;26.29;33.70;100777.78;4896595;29;20048;-68
2021/09/11 08:25:50;;;;;;;15.27;5.47;;;;;;;26.53;33.35;100769.19;4904164;29;20032;-67
2021/09/11 08:28:15;;;;;;;10.35;4.68;;;;;;;26.37;32.98;100754.94;4919180;29;20083;-67
2021/09/11 08:30:41;;;;;;;17.33;5.28;;;;;;;26.66;31.30;100774.69;4906772;29;20056;-67
2021/09/11 08:33:09;;;;;;;18.48;6.20;;;;;;;25.68;32.08;100768.78;4909567;29;20051;-68
2021/09/11 08:35:35;;;;;;;7.80;4.50;;;;;;;26.45;32.72;100776.84;4900256;29;20034;-67
2021/09/11 08:38:00;;;;;;;8.25;4.18;;;;;;;26.80;33.36;100771.16;4907294;29;20393;-68
2021/09/11 08:40:26;;;;;;;21.77;4.25;;;;;;;26.65;32.37;100743.38;4907262;29;20033;-68
2021/09/11 08:42:51;;;;;;;26.42;4.07;;;;;;;26.89;29.99;100766.06;4908498;29;20052;-68
2021/09/11 08:45:17;;;;;;;19.00;4.80;;;;;;;26.84;29.87;100760.09;4909382;29;20119;-67
2021/09/11 08:47:47;;;;;;;6.90;3.85;;;;;;;26.23;31.13;100731.53;4911435;29;20047;-67
2021/09/11 08:50:14;;;;;;;9.07;4.32;;;;;;;27.02;31.63;100749.13;4895427;29;20501;-67
2021/09/11 08:52:41;;;;;;;12.82;5.20;;;;;;;27.04;30.13;100740.00;4904298;29;20096;-67
2021/09/11 08:55:07;;;;;;;19.38;4.40;;;;;;;27.27;29.61;100745.75;4893867;29;20036;-68
2021/09/11 08:57:33;;;;;;;9.27;4.22;;;;;;;27.15;28.01;100742.00;4908312;29;20048;-67
2021/09/11 08:59:59;;;;;;;15.75;4.50;;;;;;;27.27;27.59;100714.28;4910205;29;20123;-67
2021/09/11 09:02:25;;;;;;;12.75;4.15;;;;;;;27.39;27.91;100744.94;4907571;29;20147;-68
2021/09/11 09:04:58;;;;;;;17.20;4.57;;;;;;;27.38;30.91;100729.75;4900790;29;20043;-67
2021/09/11 09:07:38;;;;;;;7.95;3.85;;;;;;;27.31;27.67;100736.53;4902017;29;20051;-63
2021/09/11 09:10:08;;;;;;;10.38;3.35;;;;;;;26.89;34.30;100724.81;4908510;29;20044;-67
2021/09/11 09:12:37;;;;;;;9.32;4.30;;;;;;;26.68;30.07;100711.72;4907127;29;20031;-66
2021/09/11 09:15:16;;;;;;;8.07;4.22;;;;;;;27.18;27.14;100725.63;4908606;29;20037;-66
2021/09/11 09:17:50;;;;;;;5.85;3.65;;;;;;;27.50;31.19;100728.94;4909910;29;20036;-65
2021/09/11 09:20:21;;;;;;;10.65;4.68;;;;;;;27.46;29.06;100708.53;4907919;29;20044;-66
2021/09/11 09:23:07;;;;;;;8.90;4.22;;;;;;;28.06;27.41;100730.69;4906272;29;20344;-65
2021/09/11 09:25:37;;;;;;;14.55;4.40;;;;;;;27.59;28.24;100700.53;4899034;29;20099;-66
2021/09/11 09:28:03;;;;;;;12.60;4.97;;;;;;;27.11;33.31;100727.88;4908138;29;20103;-65
2021/09/11 09:30:36;;;;;;;11.05;4.63;;;;;;;27.20;32.30;100682.44;4907921;29;20493;-65
2021/09/11 09:33:02;;;;;;;16.85;4.30;;;;;;;27.65;31.10;100719.00;4906878;29;20036;-64
2021/09/11 09:35:27;;;;;;;10.82;4.88;;;;;;;27.27;33.57;100711.59;4905932;29;20040;-65
2021/09/11 09:37:58;;;;;;;11.38;4.40;;;;;;;27.29;27.49;100716.88;4907032;29;20044;-66
2021/09/11 09:40:35;;;;;;;8.45;4.35;;;;;;;27.00;27.68;100710.66;4905618;29;20056;-65
2021/09/11 09:43:01;;;;;;;11.30;4.45;;;;;;;26.47;34.21;100707.66;4906564;29;20123;-65
2021/09/11 09:45:29;;;;;;;9.52;3.67;;;;;;;26.87;29.47;100708.72;4911303;29;20111;-65
2021/09/11 09:48:10;;;;;;;5.95;3.60;;;;;;;26.29;32.45;100701.56;4908101;29;20044;-65
2021/09/11 09:50:41;;;;;;;5.30;3.33;;;;;;;26.55;33.92;100683.84;4911127;29;20122;-65
2021/09/11 09:53:08;;;;;;;7.22;4.88;;;;;;;26.99;31.33;100703.53;4913859;29;20047;-66
2021/09/11 09:55:36;;;;;;;11.82;4.93;;;;;;;27.33;26.65;100695.03;4903984;29;20046;-65
2021/09/11 09:58:02;;;;;;;6.40;3.65;;;;;;;27.33;30.40;100700.41;4906610;29;20115;-64
2021/09/11 10:00:28;;;;;;;9.27;3.92;;;;;;;27.24;26.86;100689.38;4907512;29;20127;-65
2021/09/11 10:02:54;;;;;;;15.38;5.03;;;;;;;26.70;27.66;100574.31;4906745;29;20099;-65
2021/09/11 10:05:25;;;;;;;8.90;4.82;;;;;;;27.20;29.91;100685.16;4904804;29;20040;-64
2021/09/11 10:07:55;;;;;;;8.07;4.68;;;;;;;27.04;30.21;100699.59;4903636;29;20103;-64
2021/09/11 10:10:39;;;;;;;7.93;4.00;;;;;;;26.99;29.09;100677.44;4903696;29;20043;-65
2021/09/11 10:13:16;;;;;;;10.85;3.75;;;;;;;27.44;27.05;100698.84;4905905;29;20036;-67
2021/09/11 10:16:02;;;;;;;10.18;5.00;;;;;;;27.56;27.03;100684.56;4907097;29;20047;-66
2021/09/11 10:18:30;;;;;;;8.30;5.47;;;;;;;28.25;26.08;100693.34;4899869;29;20139;-65
2021/09/11 10:21:15;;;;;;;6.95;4.65;;;;;;;27.60;26.99;100686.06;4902358;29;20057;-66
2021/09/11 10:24:04;;;;;;;10.25;4.30;;;;;;;26.81;30.97;100663.38;4919305;29;20067;-66
2021/09/11 10:27:11;;;;;;;10.38;4.35;;;;;;;27.24;27.71;100690.22;4895186;29;20555;-66
2021/09/11 10:29:44;;;;;;;6.65;4.93;;;;;;;28.07;27.35;100657.72;4889576;29;20059;-65
2021/09/11 10:32:15;;;;;;;6.65;3.92;;;;;;;28.89;26.95;100693.34;4904334;29;20044;-67
2021/09/11 10:34:51;;;;;;;12.23;3.63;;;;;;;27.95;24.78;100691.78;4902977;29;20047;-66
2021/09/11 10:37:49;;;;;;;11.52;5.05;;;;;;;27.72;26.61;100687.97;4937926;29;20075;-65
2021/09/11 10:40:18;;;;;;;10.45;5.38;;;;;;;28.56;25.92;100658.81;4893882;29;20066;-66
2021/09/11 10:43:15;;;;;;;11.90;4.15;;;;;;;28.25;25.55;100689.81;4906586;29;20083;-66
2021/09/11 10:45:46;;;;;;;6.75;4.75;;;;;;;28.93;23.67;100689.44;4894538;29;20040;-66
2021/09/11 10:48:36;;;;;;;6.03;4.78;;;;;;;28.18;24.04;100681.25;4900475;29;20219;-64
2021/09/11 10:51:33;;;;;;;8.18;3.65;;;;;;;28.31;24.67;100675.88;4905598;29;20044;-68
2021/09/11 10:54:15;;;;;;;8.60;5.00;;;;;;;28.65;23.05;100674.38;4898638;29;20032;-67
2021/09/11 10:56:52;;;;;;;7.85;4.03;;;;;;;28.16;23.83;100673.25;4900593;29;20040;-66
2021/09/11 10:59:18;;;;;;;16.35;4.82;;;;;;;28.68;24.15;100665.19;4919966;29;20048;-66
2021/09/11 11:02:10;;;;;;;9.65;4.40;;;;;;;29.88;24.17;100660.78;4904488;29;20051;-64
2021/09/11 11:04:49;;;;;;;6.33;4.50;;;;;;;30.10;24.60;100656.38;4899996;29;20083;-64
2021/09/11 11:07:19;;;;;;;10.00;5.32;;;;;;;30.06;24.96;100631.41;4904345;29;20043;-63
2021/09/11 11:09:47;;;;;;;15.55;4.85;;;;;;;30.08;24.81;100631.28;4904115;29;20048;-65
2021/09/11 11:12:18;;;;;;;9.48;5.25;;;;;;;30.67;23.83;100631.13;4905711;29;20040;-63
2021/09/11 11:14:47;;;;;;;8.20;5.53;;;;;;;30.53;23.06;100622.34;4898180;29;20032;-65
2021/09/11 11:17:19;;;;;;;9.20;5.85;;;;;;;30.08;23.54;100642.09;4899719;29;20482;-66
2021/09/11 11:19:48;;;;;;;;;;;;;;;29.54;24.82;100642.66;4904215;29;20040;-64